sensor_id;sensor_type;location;lat;lon;timestamp;temperature;humidity
11591;DHT22;5851;54.050;9.974;2023-07-13T00:00:48;17.80;77.40
11591;DHT22;5851;54.050;9.974;2023-07-13T00:03:16;17.80;76.80
11591;DHT22;5851;54.050;9.974;2023-07-13T00:05:43;17.80;77.00
11591;DHT22;5851;54.050;9.974;2023-07-13T00:08:11;17.90;77.10
11591;DHT22;5851;54.050;9.974;2023-07-13T00:10:42;17.80;77.10
11591;DHT22;5851;54.050;9.974;2023-07-13T00:13:09;17.80;77.90
11591;DHT22;5851;54.050;9.974;2023-07-13T00:15:36;17.80;76.60
11591;DHT22;5851;54.050;9.974;2023-07-13T00:18:03;17.80;77.40
11591;DHT22;5851;54.050;9.974;2023-07-13T00:20:30;17.80;78.50
11591;DHT22;5851;54.050;9.974;2023-07-13T00:22:57;17.80;78.40
11591;DHT22;5851;54.050;9.974;2023-07-13T00:25:26;17.80;77.80
11591;DHT22;5851;54.050;9.974;2023-07-13T00:27:54;17.70;77.70
11591;DHT22;5851;54.050;9.974;2023-07-13T00:30:21;17.80;77.30
11591;DHT22;5851;54.050;9.974;2023-07-13T00:32:48;17.80;78.70
11591;DHT22;5851;54.050;9.974;2023-07-13T00:35:16;17.70;78.70
11591;DHT22;5851;54.050;9.974;2023-07-13T00:37:43;17.70;79.10
11591;DHT22;5851;54.050;9.974;2023-07-13T00:40:11;17.70;79.60
11591;DHT22;5851;54.050;9.974;2023-07-13T00:42:40;17.60;79.30
11591;DHT22;5851;54.050;9.974;2023-07-13T00:48:19;17.60;79.20
11591;DHT22;5851;54.050;9.974;2023-07-13T00:50:49;17.60;77.60
11591;DHT22;5851;54.050;9.974;2023-07-13T00:53:17;17.60;78.40
11591;DHT22;5851;54.050;9.974;2023-07-13T00:55:45;17.50;80.30
11591;DHT22;5851;54.050;9.974;2023-07-13T00:58:12;17.60;78.50
11591;DHT22;5851;54.050;9.974;2023-07-13T01:00:40;17.50;78.70
11591;DHT22;5851;54.050;9.974;2023-07-13T01:03:07;17.50;79.70
11591;DHT22;5851;54.050;9.974;2023-07-13T01:05:36;17.50;78.90
11591;DHT22;5851;54.050;9.974;2023-07-13T01:08:04;17.50;78.30
11591;DHT22;5851;54.050;9.974;2023-07-13T01:10:32;17.60;78.40
11591;DHT22;5851;54.050;9.974;2023-07-13T01:13:04;17.60;78.40
11591;DHT22;5851;54.050;9.974;2023-07-13T01:15:37;17.50;78.90
11591;DHT22;5851;54.050;9.974;2023-07-13T01:18:04;17.50;78.90
11591;DHT22;5851;54.050;9.974;2023-07-13T01:20:31;17.60;79.10
11591;DHT22;5851;54.050;9.974;2023-07-13T01:23:04;17.50;78.90
11591;DHT22;5851;54.050;9.974;2023-07-13T01:25:31;17.50;79.20
11591;DHT22;5851;54.050;9.974;2023-07-13T01:27:58;17.50;79.10
11591;DHT22;5851;54.050;9.974;2023-07-13T01:30:25;17.60;80.20
11591;DHT22;5851;54.050;9.974;2023-07-13T01:32:52;17.60;79.40
11591;DHT22;5851;54.050;9.974;2023-07-13T01:35:19;17.60;79.50
11591;DHT22;5851;54.050;9.974;2023-07-13T01:37:46;17.60;79.30
11591;DHT22;5851;54.050;9.974;2023-07-13T01:40:14;17.50;79.10
11591;DHT22;5851;54.050;9.974;2023-07-13T01:42:41;17.60;79.50
11591;DHT22;5851;54.050;9.974;2023-07-13T01:45:08;17.50;79.20
11591;DHT22;5851;54.050;9.974;2023-07-13T01:47:35;17.60;78.70
11591;DHT22;5851;54.050;9.974;2023-07-13T01:50:02;17.60;78.80
11591;DHT22;5851;54.050;9.974;2023-07-13T01:52:29;17.60;78.80
11591;DHT22;5851;54.050;9.974;2023-07-13T01:54:56;17.50;79.30
11591;DHT22;5851;54.050;9.974;2023-07-13T01:57:24;17.50;79.30
11591;DHT22;5851;54.050;9.974;2023-07-13T01:59:51;17.40;79.70
11591;DHT22;5851;54.050;9.974;2023-07-13T02:02:18;17.40;79.10
11591;DHT22;5851;54.050;9.974;2023-07-13T02:04:45;17.40;79.60
11591;DHT22;5851;54.050;9.974;2023-07-13T02:07:12;17.40;79.40
11591;DHT22;5851;54.050;9.974;2023-07-13T02:09:40;17.40;80.10
11591;DHT22;5851;54.050;9.974;2023-07-13T02:12:08;17.40;79.60
11591;DHT22;5851;54.050;9.974;2023-07-13T02:14:36;17.40;79.30
11591;DHT22;5851;54.050;9.974;2023-07-13T02:17:04;17.30;81.60
11591;DHT22;5851;54.050;9.974;2023-07-13T02:19:31;17.30;79.30
11591;DHT22;5851;54.050;9.974;2023-07-13T02:21:58;17.40;79.30
11591;DHT22;5851;54.050;9.974;2023-07-13T02:24:25;17.40;79.70
11591;DHT22;5851;54.050;9.974;2023-07-13T02:26:52;17.30;79.40
11591;DHT22;5851;54.050;9.974;2023-07-13T02:29:19;17.40;79.40
11591;DHT22;5851;54.050;9.974;2023-07-13T02:31:47;17.40;80.70
11591;DHT22;5851;54.050;9.974;2023-07-13T02:34:14;17.30;80.20
11591;DHT22;5851;54.050;9.974;2023-07-13T02:36:41;17.30;80.20
11591;DHT22;5851;54.050;9.974;2023-07-13T02:39:09;17.30;79.60
11591;DHT22;5851;54.050;9.974;2023-07-13T02:41:37;17.30;79.50
11591;DHT22;5851;54.050;9.974;2023-07-13T02:44:04;17.30;79.70
11591;DHT22;5851;54.050;9.974;2023-07-13T02:46:35;17.30;80.10
11591;DHT22;5851;54.050;9.974;2023-07-13T02:49:04;17.30;80.00
11591;DHT22;5851;54.050;9.974;2023-07-13T02:51:31;17.30;79.80
11591;DHT22;5851;54.050;9.974;2023-07-13T02:53:59;17.20;80.30
11591;DHT22;5851;54.050;9.974;2023-07-13T02:56:27;17.20;80.30
11591;DHT22;5851;54.050;9.974;2023-07-13T02:58:55;17.20;80.30
11591;DHT22;5851;54.050;9.974;2023-07-13T03:01:22;17.20;81.00
11591;DHT22;5851;54.050;9.974;2023-07-13T03:03:50;17.20;81.00
11591;DHT22;5851;54.050;9.974;2023-07-13T03:06:19;17.20;80.50
11591;DHT22;5851;54.050;9.974;2023-07-13T03:08:46;17.20;80.90
11591;DHT22;5851;54.050;9.974;2023-07-13T03:11:17;17.10;81.60
11591;DHT22;5851;54.050;9.974;2023-07-13T03:13:44;17.10;82.10
11591;DHT22;5851;54.050;9.974;2023-07-13T03:16:12;17.00;82.40
11591;DHT22;5851;54.050;9.974;2023-07-13T03:18:41;17.10;81.80
11591;DHT22;5851;54.050;9.974;2023-07-13T03:21:09;17.20;81.30
11591;DHT22;5851;54.050;9.974;2023-07-13T03:23:37;17.10;81.40
11591;DHT22;5851;54.050;9.974;2023-07-13T03:26:06;17.00;81.90
11591;DHT22;5851;54.050;9.974;2023-07-13T03:28:34;17.00;81.80
11591;DHT22;5851;54.050;9.974;2023-07-13T03:31:02;17.10;82.60
11591;DHT22;5851;54.050;9.974;2023-07-13T03:33:29;17.10;82.80
11591;DHT22;5851;54.050;9.974;2023-07-13T03:35:56;17.00;82.40
11591;DHT22;5851;54.050;9.974;2023-07-13T03:38:23;17.00;82.70
11591;DHT22;5851;54.050;9.974;2023-07-13T03:40:51;17.00;82.70
11591;DHT22;5851;54.050;9.974;2023-07-13T03:43:18;17.10;82.50
11591;DHT22;5851;54.050;9.974;2023-07-13T03:45:46;17.10;82.50
11591;DHT22;5851;54.050;9.974;2023-07-13T03:48:13;17.10;83.80
11591;DHT22;5851;54.050;9.974;2023-07-13T03:50:40;17.10;82.30
11591;DHT22;5851;54.050;9.974;2023-07-13T03:53:07;17.10;82.40
11591;DHT22;5851;54.050;9.974;2023-07-13T03:55:34;17.20;82.10
11591;DHT22;5851;54.050;9.974;2023-07-13T03:58:23;17.20;81.60
11591;DHT22;5851;54.050;9.974;2023-07-13T04:00:51;17.10;82.60
11591;DHT22;5851;54.050;9.974;2023-07-13T04:03:18;17.10;83.00
11591;DHT22;5851;54.050;9.974;2023-07-13T04:05:45;17.10;83.00
11591;DHT22;5851;54.050;9.974;2023-07-13T04:08:13;17.00;83.40
11591;DHT22;5851;54.050;9.974;2023-07-13T04:10:40;17.00;83.80
11591;DHT22;5851;54.050;9.974;2023-07-13T04:13:08;17.00;83.30
11591;DHT22;5851;54.050;9.974;2023-07-13T04:15:35;17.00;84.20
11591;DHT22;5851;54.050;9.974;2023-07-13T04:18:02;17.00;84.50
11591;DHT22;5851;54.050;9.974;2023-07-13T04:20:29;16.90;83.90
11591;DHT22;5851;54.050;9.974;2023-07-13T04:22:56;17.00;84.10
11591;DHT22;5851;54.050;9.974;2023-07-13T04:25:24;17.00;83.90
11591;DHT22;5851;54.050;9.974;2023-07-13T04:27:51;17.00;84.30
11591;DHT22;5851;54.050;9.974;2023-07-13T04:30:20;17.00;84.20
11591;DHT22;5851;54.050;9.974;2023-07-13T04:32:47;17.10;83.90
11591;DHT22;5851;54.050;9.974;2023-07-13T04:35:14;17.10;83.60
11591;DHT22;5851;54.050;9.974;2023-07-13T04:37:41;16.90;84.70
11591;DHT22;5851;54.050;9.974;2023-07-13T04:40:08;17.00;84.80
11591;DHT22;5851;54.050;9.974;2023-07-13T04:42:37;16.90;84.30
11591;DHT22;5851;54.050;9.974;2023-07-13T04:45:05;17.00;83.80
11591;DHT22;5851;54.050;9.974;2023-07-13T04:47:34;17.00;84.50
11591;DHT22;5851;54.050;9.974;2023-07-13T04:50:01;16.90;84.00
11591;DHT22;5851;54.050;9.974;2023-07-13T04:52:28;16.90;84.40
11591;DHT22;5851;54.050;9.974;2023-07-13T04:54:55;17.00;84.50
11591;DHT22;5851;54.050;9.974;2023-07-13T04:57:22;17.10;84.30
11591;DHT22;5851;54.050;9.974;2023-07-13T04:59:49;17.20;83.20
11591;DHT22;5851;54.050;9.974;2023-07-13T05:02:16;17.20;83.40
11591;DHT22;5851;54.050;9.974;2023-07-13T05:04:46;17.20;83.70
11591;DHT22;5851;54.050;9.974;2023-07-13T05:07:13;17.20;83.40
11591;DHT22;5851;54.050;9.974;2023-07-13T05:09:40;17.30;83.40
11591;DHT22;5851;54.050;9.974;2023-07-13T05:12:09;17.30;83.60
11591;DHT22;5851;54.050;9.974;2023-07-13T05:14:36;17.30;83.00
11591;DHT22;5851;54.050;9.974;2023-07-13T05:17:03;17.30;83.50
11591;DHT22;5851;54.050;9.974;2023-07-13T05:19:30;17.40;83.30
11591;DHT22;5851;54.050;9.974;2023-07-13T05:21:59;17.40;83.30
11591;DHT22;5851;54.050;9.974;2023-07-13T05:24:26;17.40;84.20
11591;DHT22;5851;54.050;9.974;2023-07-13T05:26:53;17.40;83.00
11591;DHT22;5851;54.050;9.974;2023-07-13T05:29:20;17.40;82.80
11591;DHT22;5851;54.050;9.974;2023-07-13T05:31:48;17.40;83.20
11591;DHT22;5851;54.050;9.974;2023-07-13T05:34:15;17.50;82.80
11591;DHT22;5851;54.050;9.974;2023-07-13T05:36:41;17.50;82.80
11591;DHT22;5851;54.050;9.974;2023-07-13T05:39:09;17.50;83.60
11591;DHT22;5851;54.050;9.974;2023-07-13T05:41:37;17.50;83.70
11591;DHT22;5851;54.050;9.974;2023-07-13T05:44:04;17.50;84.00
11591;DHT22;5851;54.050;9.974;2023-07-13T05:46:31;17.50;83.30
11591;DHT22;5851;54.050;9.974;2023-07-13T05:48:58;17.50;83.10
11591;DHT22;5851;54.050;9.974;2023-07-13T05:51:25;17.50;83.80
11591;DHT22;5851;54.050;9.974;2023-07-13T05:53:52;17.60;83.80
11591;DHT22;5851;54.050;9.974;2023-07-13T05:56:20;17.60;83.50
11591;DHT22;5851;54.050;9.974;2023-07-13T05:58:48;17.50;83.20
11591;DHT22;5851;54.050;9.974;2023-07-13T06:01:15;17.50;83.20
11591;DHT22;5851;54.050;9.974;2023-07-13T06:03:42;17.50;83.20
11591;DHT22;5851;54.050;9.974;2023-07-13T06:06:10;17.40;83.40
11591;DHT22;5851;54.050;9.974;2023-07-13T06:08:37;17.50;83.40
11591;DHT22;5851;54.050;9.974;2023-07-13T06:11:06;17.50;83.10
11591;DHT22;5851;54.050;9.974;2023-07-13T06:13:34;17.60;83.20
11591;DHT22;5851;54.050;9.974;2023-07-13T06:16:02;17.60;83.40
11591;DHT22;5851;54.050;9.974;2023-07-13T06:18:31;17.60;83.70
11591;DHT22;5851;54.050;9.974;2023-07-13T06:20:58;17.70;83.00
11591;DHT22;5851;54.050;9.974;2023-07-13T06:23:25;17.70;84.00
11591;DHT22;5851;54.050;9.974;2023-07-13T06:25:52;17.80;84.70
11591;DHT22;5851;54.050;9.974;2023-07-13T06:28:19;17.60;83.80
11591;DHT22;5851;54.050;9.974;2023-07-13T06:30:47;17.70;83.90
11591;DHT22;5851;54.050;9.974;2023-07-13T06:33:14;17.70;83.40
11591;DHT22;5851;54.050;9.974;2023-07-13T06:35:42;17.70;83.00
11591;DHT22;5851;54.050;9.974;2023-07-13T06:38:09;17.80;84.30
11591;DHT22;5851;54.050;9.974;2023-07-13T06:40:36;17.90;84.40
11591;DHT22;5851;54.050;9.974;2023-07-13T06:43:03;17.90;83.60
11591;DHT22;5851;54.050;9.974;2023-07-13T06:45:30;17.90;84.80
11591;DHT22;5851;54.050;9.974;2023-07-13T06:47:58;17.90;83.50
11591;DHT22;5851;54.050;9.974;2023-07-13T06:50:25;17.90;84.60
11591;DHT22;5851;54.050;9.974;2023-07-13T06:52:52;17.80;84.00
11591;DHT22;5851;54.050;9.974;2023-07-13T06:55:19;18.00;83.20
11591;DHT22;5851;54.050;9.974;2023-07-13T06:57:46;18.00;84.70
11591;DHT22;5851;54.050;9.974;2023-07-13T07:00:14;18.10;84.30
11591;DHT22;5851;54.050;9.974;2023-07-13T07:02:41;18.10;83.90
11591;DHT22;5851;54.050;9.974;2023-07-13T07:05:09;18.30;83.60
11591;DHT22;5851;54.050;9.974;2023-07-13T07:07:36;18.30;83.40
11591;DHT22;5851;54.050;9.974;2023-07-13T07:10:03;18.40;84.40
11591;DHT22;5851;54.050;9.974;2023-07-13T07:12:30;18.40;82.10
11591;DHT22;5851;54.050;9.974;2023-07-13T07:14:57;18.60;83.50
11591;DHT22;5851;54.050;9.974;2023-07-13T07:17:24;18.60;81.30
11591;DHT22;5851;54.050;9.974;2023-07-13T07:19:51;18.50;81.70
11591;DHT22;5851;54.050;9.974;2023-07-13T07:22:20;18.40;81.10
11591;DHT22;5851;54.050;9.974;2023-07-13T07:24:48;18.40;81.80
11591;DHT22;5851;54.050;9.974;2023-07-13T07:27:15;18.40;82.20
11591;DHT22;5851;54.050;9.974;2023-07-13T07:29:42;18.50;82.20
11591;DHT22;5851;54.050;9.974;2023-07-13T07:32:09;18.70;82.60
11591;DHT22;5851;54.050;9.974;2023-07-13T07:34:36;18.90;82.80
11591;DHT22;5851;54.050;9.974;2023-07-13T07:37:03;18.90;81.90
11591;DHT22;5851;54.050;9.974;2023-07-13T07:39:32;18.80;82.20
11591;DHT22;5851;54.050;9.974;2023-07-13T07:41:59;18.90;82.20
11591;DHT22;5851;54.050;9.974;2023-07-13T07:44:25;19.00;82.20
11591;DHT22;5851;54.050;9.974;2023-07-13T07:46:54;19.10;83.10
11591;DHT22;5851;54.050;9.974;2023-07-13T07:49:21;19.30;81.90
11591;DHT22;5851;54.050;9.974;2023-07-13T07:51:47;19.20;80.60
11591;DHT22;5851;54.050;9.974;2023-07-13T07:54:17;19.30;81.60
11591;DHT22;5851;54.050;9.974;2023-07-13T07:56:46;19.30;81.20
11591;DHT22;5851;54.050;9.974;2023-07-13T07:59:13;19.50;81.80
11591;DHT22;5851;54.050;9.974;2023-07-13T08:01:39;19.50;80.50
11591;DHT22;5851;54.050;9.974;2023-07-13T08:04:06;19.50;80.70
11591;DHT22;5851;54.050;9.974;2023-07-13T08:06:33;19.60;80.20
11591;DHT22;5851;54.050;9.974;2023-07-13T08:09:00;19.80;80.70
11591;DHT22;5851;54.050;9.974;2023-07-13T08:11:29;19.60;78.50
11591;DHT22;5851;54.050;9.974;2023-07-13T08:13:58;19.70;80.20
11591;DHT22;5851;54.050;9.974;2023-07-13T08:16:25;19.60;79.60
11591;DHT22;5851;54.050;9.974;2023-07-13T08:18:52;19.70;80.30
11591;DHT22;5851;54.050;9.974;2023-07-13T08:21:19;19.70;78.40
11591;DHT22;5851;54.050;9.974;2023-07-13T08:23:47;19.50;77.90
11591;DHT22;5851;54.050;9.974;2023-07-13T08:26:14;19.50;79.30
11591;DHT22;5851;54.050;9.974;2023-07-13T08:28:41;19.60;79.00
11591;DHT22;5851;54.050;9.974;2023-07-13T08:31:10;19.60;78.70
11591;DHT22;5851;54.050;9.974;2023-07-13T08:33:37;19.60;79.20
11591;DHT22;5851;54.050;9.974;2023-07-13T08:36:06;19.60;79.10
11591;DHT22;5851;54.050;9.974;2023-07-13T08:38:33;19.60;78.40
11591;DHT22;5851;54.050;9.974;2023-07-13T08:41:10;19.60;77.40
11591;DHT22;5851;54.050;9.974;2023-07-13T08:43:38;19.60;78.20
11591;DHT22;5851;54.050;9.974;2023-07-13T08:46:11;19.60;78.20
11591;DHT22;5851;54.050;9.974;2023-07-13T08:48:43;19.70;78.50
11591;DHT22;5851;54.050;9.974;2023-07-13T08:51:22;19.60;77.80
11591;DHT22;5851;54.050;9.974;2023-07-13T08:53:55;19.40;77.50
11591;DHT22;5851;54.050;9.974;2023-07-13T08:56:26;19.40;78.30
11591;DHT22;5851;54.050;9.974;2023-07-13T08:58:56;19.50;78.00
11591;DHT22;5851;54.050;9.974;2023-07-13T09:01:33;19.50;77.90
11591;DHT22;5851;54.050;9.974;2023-07-13T09:04:13;19.60;78.10
11591;DHT22;5851;54.050;9.974;2023-07-13T09:06:49;19.60;78.10
11591;DHT22;5851;54.050;9.974;2023-07-13T09:09:27;19.50;78.00
11591;DHT22;5851;54.050;9.974;2023-07-13T09:12:05;19.40;78.20
11591;DHT22;5851;54.050;9.974;2023-07-13T09:14:42;19.50;79.30
11591;DHT22;5851;54.050;9.974;2023-07-13T09:17:17;19.80;80.20
11591;DHT22;5851;54.050;9.974;2023-07-13T09:19:48;20.00;78.30
11591;DHT22;5851;54.050;9.974;2023-07-13T09:22:19;20.00;77.80
11591;DHT22;5851;54.050;9.974;2023-07-13T09:24:54;20.00;77.80
11591;DHT22;5851;54.050;9.974;2023-07-13T09:27:29;20.10;77.60
11591;DHT22;5851;54.050;9.974;2023-07-13T09:30:01;20.30;77.50
11591;DHT22;5851;54.050;9.974;2023-07-13T09:32:33;20.50;76.30
11591;DHT22;5851;54.050;9.974;2023-07-13T09:35:00;20.50;73.90
11591;DHT22;5851;54.050;9.974;2023-07-13T09:37:30;20.50;73.00
11591;DHT22;5851;54.050;9.974;2023-07-13T09:39:59;20.50;73.20
11591;DHT22;5851;54.050;9.974;2023-07-13T09:42:31;20.60;73.10
11591;DHT22;5851;54.050;9.974;2023-07-13T09:45:00;20.60;72.20
11591;DHT22;5851;54.050;9.974;2023-07-13T09:47:33;20.60;72.60
11591;DHT22;5851;54.050;9.974;2023-07-13T09:50:08;20.70;72.70
11591;DHT22;5851;54.050;9.974;2023-07-13T09:52:46;20.90;72.30
11591;DHT22;5851;54.050;9.974;2023-07-13T09:55:26;20.80;71.20
11591;DHT22;5851;54.050;9.974;2023-07-13T09:57:53;20.80;70.20
11591;DHT22;5851;54.050;9.974;2023-07-13T10:00:22;20.60;68.40
11591;DHT22;5851;54.050;9.974;2023-07-13T10:03:01;20.30;67.70
11591;DHT22;5851;54.050;9.974;2023-07-13T10:05:37;20.30;67.10
11591;DHT22;5851;54.050;9.974;2023-07-13T10:08:04;20.40;68.00
11591;DHT22;5851;54.050;9.974;2023-07-13T10:10:33;20.30;66.60
11591;DHT22;5851;54.050;9.974;2023-07-13T10:13:02;20.10;67.20
11591;DHT22;5851;54.050;9.974;2023-07-13T10:15:31;19.90;69.20
11591;DHT22;5851;54.050;9.974;2023-07-13T10:17:59;19.50;71.80
11591;DHT22;5851;54.050;9.974;2023-07-13T10:20:27;19.50;72.80
11591;DHT22;5851;54.050;9.974;2023-07-13T10:22:58;19.50;74.10
11591;DHT22;5851;54.050;9.974;2023-07-13T10:25:29;19.60;74.10
11591;DHT22;5851;54.050;9.974;2023-07-13T10:28:02;19.70;74.20
11591;DHT22;5851;54.050;9.974;2023-07-13T10:30:33;19.80;73.40
11591;DHT22;5851;54.050;9.974;2023-07-13T10:33:05;19.90;71.90
11591;DHT22;5851;54.050;9.974;2023-07-13T10:35:37;19.90;71.80
11591;DHT22;5851;54.050;9.974;2023-07-13T10:38:10;20.00;70.60
11591;DHT22;5851;54.050;9.974;2023-07-13T10:40:39;20.00;69.70
11591;DHT22;5851;54.050;9.974;2023-07-13T10:43:13;20.00;69.30
11591;DHT22;5851;54.050;9.974;2023-07-13T10:45:41;20.10;69.30
11591;DHT22;5851;54.050;9.974;2023-07-13T10:48:12;20.20;68.30
11591;DHT22;5851;54.050;9.974;2023-07-13T10:50:41;20.30;66.90
11591;DHT22;5851;54.050;9.974;2023-07-13T10:53:18;20.30;65.10
11591;DHT22;5851;54.050;9.974;2023-07-13T10:55:56;20.10;62.50
11591;DHT22;5851;54.050;9.974;2023-07-13T10:58:31;20.10;61.60
11591;DHT22;5851;54.050;9.974;2023-07-13T11:01:09;20.00;62.70
11591;DHT22;5851;54.050;9.974;2023-07-13T11:03:50;19.90;63.30
11591;DHT22;5851;54.050;9.974;2023-07-13T11:06:31;20.00;63.60
11591;DHT22;5851;54.050;9.974;2023-07-13T11:09:19;20.00;63.20
11591;DHT22;5851;54.050;9.974;2023-07-13T11:11:46;20.00;63.40
11591;DHT22;5851;54.050;9.974;2023-07-13T11:14:31;20.10;62.00
11591;DHT22;5851;54.050;9.974;2023-07-13T11:17:24;20.10;62.30
11591;DHT22;5851;54.050;9.974;2023-07-13T11:19:53;20.10;62.70
11591;DHT22;5851;54.050;9.974;2023-07-13T11:22:25;20.20;63.10
11591;DHT22;5851;54.050;9.974;2023-07-13T11:24:57;20.30;63.50
11591;DHT22;5851;54.050;9.974;2023-07-13T11:27:35;20.40;63.80
11591;DHT22;5851;54.050;9.974;2023-07-13T11:30:23;20.40;64.20
11591;DHT22;5851;54.050;9.974;2023-07-13T11:33:01;20.30;64.80
11591;DHT22;5851;54.050;9.974;2023-07-13T11:35:35;20.40;66.00
11591;DHT22;5851;54.050;9.974;2023-07-13T11:38:12;20.60;65.40
11591;DHT22;5851;54.050;9.974;2023-07-13T11:40:41;20.60;64.10
11591;DHT22;5851;54.050;9.974;2023-07-13T11:43:11;20.60;63.80
11591;DHT22;5851;54.050;9.974;2023-07-13T11:45:39;20.50;64.50
11591;DHT22;5851;54.050;9.974;2023-07-13T11:48:21;20.50;64.40
11591;DHT22;5851;54.050;9.974;2023-07-13T11:50:56;20.50;65.40
11591;DHT22;5851;54.050;9.974;2023-07-13T11:53:26;20.70;66.00
11591;DHT22;5851;54.050;9.974;2023-07-13T11:55:54;20.90;65.40
11591;DHT22;5851;54.050;9.974;2023-07-13T11:58:24;21.10;66.50
11591;DHT22;5851;54.050;9.974;2023-07-13T12:00:53;20.90;63.60
11591;DHT22;5851;54.050;9.974;2023-07-13T12:03:24;20.90;63.70
11591;DHT22;5851;54.050;9.974;2023-07-13T12:06:01;21.00;63.30
11591;DHT22;5851;54.050;9.974;2023-07-13T12:08:29;21.10;64.20
11591;DHT22;5851;54.050;9.974;2023-07-13T12:10:58;21.10;63.10
11591;DHT22;5851;54.050;9.974;2023-07-13T12:13:26;21.10;62.00
11591;DHT22;5851;54.050;9.974;2023-07-13T12:15:53;21.00;63.10
11591;DHT22;5851;54.050;9.974;2023-07-13T12:18:22;21.10;63.90
11591;DHT22;5851;54.050;9.974;2023-07-13T12:20:50;21.10;62.40
11591;DHT22;5851;54.050;9.974;2023-07-13T12:23:25;21.00;60.70
11591;DHT22;5851;54.050;9.974;2023-07-13T12:25:52;20.90;61.90
11591;DHT22;5851;54.050;9.974;2023-07-13T12:28:21;21.00;60.20
11591;DHT22;5851;54.050;9.974;2023-07-13T12:30:49;21.00;59.50
11591;DHT22;5851;54.050;9.974;2023-07-13T12:33:26;21.00;60.60
11591;DHT22;5851;54.050;9.974;2023-07-13T12:35:54;20.90;61.20
11591;DHT22;5851;54.050;9.974;2023-07-13T12:38:24;20.90;61.90
11591;DHT22;5851;54.050;9.974;2023-07-13T12:40:52;20.80;62.70
11591;DHT22;5851;54.050;9.974;2023-07-13T12:43:20;20.90;62.70
11591;DHT22;5851;54.050;9.974;2023-07-13T12:45:59;20.80;62.50
11591;DHT22;5851;54.050;9.974;2023-07-13T12:48:27;20.80;62.60
11591;DHT22;5851;54.050;9.974;2023-07-13T12:50:55;20.80;62.90
11591;DHT22;5851;54.050;9.974;2023-07-13T12:53:28;20.80;63.90
11591;DHT22;5851;54.050;9.974;2023-07-13T12:55:59;20.70;63.50
11591;DHT22;5851;54.050;9.974;2023-07-13T12:58:29;20.60;63.20
11591;DHT22;5851;54.050;9.974;2023-07-13T13:00:58;20.60;63.20
11591;DHT22;5851;54.050;9.974;2023-07-13T13:03:30;20.50;62.40
11591;DHT22;5851;54.050;9.974;2023-07-13T13:06:00;20.50;63.20
11591;DHT22;5851;54.050;9.974;2023-07-13T13:08:30;20.50;63.20
11591;DHT22;5851;54.050;9.974;2023-07-13T13:10:56;20.40;62.40
11591;DHT22;5851;54.050;9.974;2023-07-13T13:13:23;20.30;63.90
11591;DHT22;5851;54.050;9.974;2023-07-13T13:15:51;20.20;63.30
11591;DHT22;5851;54.050;9.974;2023-07-13T13:18:20;20.20;64.20
11591;DHT22;5851;54.050;9.974;2023-07-13T13:20:48;20.30;64.00
11591;DHT22;5851;54.050;9.974;2023-07-13T13:23:16;20.20;64.30
11591;DHT22;5851;54.050;9.974;2023-07-13T13:25:47;20.10;65.30
11591;DHT22;5851;54.050;9.974;2023-07-13T13:28:16;20.20;65.70
11591;DHT22;5851;54.050;9.974;2023-07-13T13:30:45;20.10;65.80
11591;DHT22;5851;54.050;9.974;2023-07-13T13:33:14;20.10;65.70
11591;DHT22;5851;54.050;9.974;2023-07-13T13:35:42;20.00;66.00
11591;DHT22;5851;54.050;9.974;2023-07-13T13:38:11;20.00;66.60
11591;DHT22;5851;54.050;9.974;2023-07-13T13:40:40;20.00;66.00
11591;DHT22;5851;54.050;9.974;2023-07-13T13:43:16;20.00;65.70
11591;DHT22;5851;54.050;9.974;2023-07-13T13:45:43;20.00;65.50
11591;DHT22;5851;54.050;9.974;2023-07-13T13:48:15;20.00;67.10
11591;DHT22;5851;54.050;9.974;2023-07-13T13:50:42;20.00;67.20
11591;DHT22;5851;54.050;9.974;2023-07-13T13:53:11;19.80;65.50
11591;DHT22;5851;54.050;9.974;2023-07-13T13:55:39;19.80;66.40
11591;DHT22;5851;54.050;9.974;2023-07-13T13:58:08;19.60;66.50
11591;DHT22;5851;54.050;9.974;2023-07-13T14:00:36;19.60;67.10
11591;DHT22;5851;54.050;9.974;2023-07-13T14:03:04;19.60;68.30
11591;DHT22;5851;54.050;9.974;2023-07-13T14:05:32;19.50;68.70
11591;DHT22;5851;54.050;9.974;2023-07-13T14:07:59;19.60;69.00
11591;DHT22;5851;54.050;9.974;2023-07-13T14:10:26;19.80;69.40
11591;DHT22;5851;54.050;9.974;2023-07-13T14:12:55;20.00;69.50
11591;DHT22;5851;54.050;9.974;2023-07-13T14:15:24;20.10;70.10
11591;DHT22;5851;54.050;9.974;2023-07-13T14:17:53;20.20;71.20
11591;DHT22;5851;54.050;9.974;2023-07-13T14:20:22;20.30;70.30
11591;DHT22;5851;54.050;9.974;2023-07-13T14:22:50;20.20;69.60
11591;DHT22;5851;54.050;9.974;2023-07-13T14:25:19;20.20;69.60
11591;DHT22;5851;54.050;9.974;2023-07-13T14:27:48;20.10;70.40
11591;DHT22;5851;54.050;9.974;2023-07-13T14:30:18;20.10;71.10
11591;DHT22;5851;54.050;9.974;2023-07-13T14:32:45;20.20;71.40
11591;DHT22;5851;54.050;9.974;2023-07-13T14:35:15;20.30;71.20
11591;DHT22;5851;54.050;9.974;2023-07-13T14:37:43;20.30;71.40
11591;DHT22;5851;54.050;9.974;2023-07-13T14:40:13;20.30;71.10
11591;DHT22;5851;54.050;9.974;2023-07-13T14:42:40;20.30;71.90
11591;DHT22;5851;54.050;9.974;2023-07-13T14:45:13;20.30;70.80
11591;DHT22;5851;54.050;9.974;2023-07-13T14:47:40;20.30;70.80
11591;DHT22;5851;54.050;9.974;2023-07-13T14:50:15;20.40;71.90
11591;DHT22;5851;54.050;9.974;2023-07-13T14:52:43;20.40;71.40
11591;DHT22;5851;54.050;9.974;2023-07-13T14:55:11;20.40;71.20
11591;DHT22;5851;54.050;9.974;2023-07-13T14:57:38;20.40;69.30
11591;DHT22;5851;54.050;9.974;2023-07-13T15:00:13;20.50;69.20
11591;DHT22;5851;54.050;9.974;2023-07-13T15:02:42;20.40;69.40
11591;DHT22;5851;54.050;9.974;2023-07-13T15:05:17;20.40;69.80
11591;DHT22;5851;54.050;9.974;2023-07-13T15:07:44;20.50;69.50
11591;DHT22;5851;54.050;9.974;2023-07-13T15:10:16;20.50;69.90
11591;DHT22;5851;54.050;9.974;2023-07-13T15:12:43;20.50;70.90
11591;DHT22;5851;54.050;9.974;2023-07-13T15:15:11;20.50;70.10
11591;DHT22;5851;54.050;9.974;2023-07-13T15:17:40;20.50;69.90
11591;DHT22;5851;54.050;9.974;2023-07-13T15:20:17;20.50;70.50
11591;DHT22;5851;54.050;9.974;2023-07-13T15:22:46;20.60;70.60
11591;DHT22;5851;54.050;9.974;2023-07-13T15:25:16;20.80;70.10
11591;DHT22;5851;54.050;9.974;2023-07-13T15:27:46;20.80;68.50
11591;DHT22;5851;54.050;9.974;2023-07-13T15:30:14;20.70;68.30
11591;DHT22;5851;54.050;9.974;2023-07-13T15:32:42;20.60;65.40
11591;DHT22;5851;54.050;9.974;2023-07-13T15:35:21;20.50;65.50
11591;DHT22;5851;54.050;9.974;2023-07-13T15:37:49;20.50;65.00
11591;DHT22;5851;54.050;9.974;2023-07-13T15:40:16;20.60;65.70
11591;DHT22;5851;54.050;9.974;2023-07-13T15:42:45;20.70;65.00
11591;DHT22;5851;54.050;9.974;2023-07-13T15:45:17;20.70;65.30
11591;DHT22;5851;54.050;9.974;2023-07-13T15:47:44;20.80;64.20
11591;DHT22;5851;54.050;9.974;2023-07-13T15:50:13;20.70;64.60
11591;DHT22;5851;54.050;9.974;2023-07-13T15:52:43;20.80;64.50
11591;DHT22;5851;54.050;9.974;2023-07-13T15:55:12;20.80;64.20
11591;DHT22;5851;54.050;9.974;2023-07-13T15:57:43;20.70;64.40
11591;DHT22;5851;54.050;9.974;2023-07-13T16:00:21;20.70;64.80